Time;durP1;ratioP1;P1;durP2;ratioP2;P2;SDS_P1;SDS_P2;PMS_P1;PMS_P2;Temp;Humidity;BMP_temperature;BMP_pressure;BME280_temperature;BME280_humidity;BME280_pressure;Samples;Min_cycle;Max_cycle;Signal;HPM_P1;HPM_P2
2021/11/02 00:01:27;;;;;;;21.23;12.07;;;;;;;4.74;100.00;99955.94;5055646;28;20108;-77
2021/11/02 00:03:53;;;;;;;20.15;11.38;;;;;;;4.76;100.00;99943.50;5054824;28;20043;-77
2021/11/02 00:06:19;;;;;;;20.20;11.30;;;;;;;4.72;100.00;99944.69;5056039;28;20033;-77
2021/11/02 00:08:44;;;;;;;19.58;11.35;;;;;;;4.71;100.00;99950.09;5054224;28;20021;-77
2021/11/02 00:11:09;;;;;;;19.55;11.10;;;;;;;4.69;100.00;99944.94;5038550;28;20111;-78
2021/11/02 00:13:38;;;;;;;26.27;12.48;;;;;;;4.67;100.00;99946.88;5037679;28;20534;-78
2021/11/02 00:16:06;;;;;;;20.88;11.02;;;;;;;4.64;100.00;99951.53;5055927;28;20055;-78
2021/11/02 00:18:32;;;;;;;22.15;12.70;;;;;;;4.69;100.00;99949.41;5037688;28;20469;-77
2021/11/02 00:21:00;;;;;;;15.85;11.40;;;;;;;4.68;100.00;99951.16;5055674;28;20103;-77
2021/11/02 00:23:28;;;;;;;19.80;10.68;;;;;;;4.71;100.00;99945.66;5055500;28;20060;-78
2021/11/02 00:25:53;;;;;;;20.70;11.75;;;;;;;4.72;100.00;99943.88;5054648;28;20123;-78
2021/11/02 00:28:19;;;;;;;20.40;11.18;;;;;;;4.69;100.00;99949.41;5054489;28;20460;-77
2021/11/02 00:30:44;;;;;;;20.42;11.70;;;;;;;4.75;100.00;99951.53;5055163;28;20040;-77
2021/11/02 00:33:10;;;;;;;24.65;12.15;;;;;;;4.78;100.00;99938.09;5055501;28;20036;-78
2021/11/02 00:35:36;;;;;;;22.35;12.23;;;;;;;4.80;100.00;99944.06;5053442;28;20404;-76
2021/11/02 00:38:01;;;;;;;23.38;12.38;;;;;;;4.82;100.00;99939.53;5037923;28;20029;-77
2021/11/02 00:40:27;;;;;;;17.88;11.50;;;;;;;4.82;100.00;99936.91;5055030;28;20040;-78
2021/11/02 00:42:54;;;;;;;24.48;12.68;;;;;;;4.79;100.00;99926.59;5054187;28;20029;-77
2021/11/02 00:45:41;;;;;;;20.25;11.60;;;;;;;4.81;100.00;99937.84;5037787;28;20040;-78
2021/11/02 00:48:11;;;;;;;19.80;11.88;;;;;;;4.77;100.00;99937.25;5053923;28;20036;-78
2021/11/02 00:50:44;;;;;;;23.30;11.93;;;;;;;4.81;100.00;99935.22;5037357;28;20029;-78
2021/11/02 00:53:10;;;;;;;20.50;12.20;;;;;;;4.82;100.00;99936.03;5054164;28;20029;-77
2021/11/02 00:55:35;;;;;;;23.95;12.35;;;;;;;4.83;100.00;99945.63;5053457;28;20033;-77
2021/11/02 00:58:04;;;;;;;23.75;12.60;;;;;;;4.86;100.00;99938.31;5053965;28;20090;-77
2021/11/02 01:00:30;;;;;;;24.05;12.15;;;;;;;4.87;100.00;99936.53;5037115;28;20033;-78
2021/11/02 01:02:55;;;;;;;25.13;12.50;;;;;;;4.85;100.00;99941.06;5020500;28;20033;-78
2021/11/02 01:05:21;;;;;;;23.38;13.15;;;;;;;4.89;100.00;99942.50;5053788;28;20125;-77
2021/11/02 01:07:47;;;;;;;23.55;13.05;;;;;;;4.89;100.00;99935.41;5036221;28;20033;-78
2021/11/02 01:10:17;;;;;;;21.50;12.73;;;;;;;4.93;100.00;99934.22;5054963;28;20044;-78
2021/11/02 01:12:44;;;;;;;22.30;12.70;;;;;;;4.96;100.00;99930.50;5054496;28;20032;-78
2021/11/02 01:15:12;;;;;;;18.73;12.15;;;;;;;4.97;100.00;99929.56;5036753;28;20123;-77
2021/11/02 01:17:37;;;;;;;20.02;12.95;;;;;;;5.01;100.00;99932.75;5054487;28;20036;-77
2021/11/02 01:20:05;;;;;;;20.52;13.45;;;;;;;5.03;100.00;99931.69;5053580;28;20033;-78
2021/11/02 01:22:31;;;;;;;22.98;12.52;;;;;;;5.06;100.00;99931.44;5054207;28;20540;-78
2021/11/02 01:24:56;;;;;;;24.70;14.23;;;;;;;5.09;100.00;99935.59;5053447;28;20116;-78
2021/11/02 01:27:21;;;;;;;38.60;14.73;;;;;;;5.17;100.00;99932.34;5053161;28;20102;-77
2021/11/02 01:29:47;;;;;;;22.25;11.73;;;;;;;5.19;100.00;99931.25;5036000;28;20072;-78
2021/11/02 01:32:12;;;;;;;19.88;11.90;;;;;;;5.23;100.00;99930.03;5053754;28;20485;-78
2021/11/02 01:34:38;;;;;;;24.10;13.20;;;;;;;5.26;100.00;99934.22;5052606;28;21103;-78
2021/11/02 01:37:04;;;;;;;25.90;12.30;;;;;;;5.27;100.00;99928.00;5053437;28;20044;-78
2021/11/02 01:39:29;;;;;;;16.77;11.13;;;;;;;5.25;100.00;99925.44;5054541;28;20072;-77
2021/11/02 01:41:55;;;;;;;21.95;13.48;;;;;;;5.24;100.00;99923.81;5053864;28;20448;-78
2021/11/02 01:44:20;;;;;;;22.55;12.98;;;;;;;5.28;100.00;99919.94;5052955;28;20032;-77
2021/11/02 01:46:47;;;;;;;21.83;12.18;;;;;;;5.37;100.00;99923.59;5053697;28;20389;-77
2021/11/02 01:49:13;;;;;;;22.17;12.95;;;;;;;5.42;100.00;99921.44;5053102;28;20040;-77
2021/11/02 01:51:40;;;;;;;21.88;12.02;;;;;;;5.47;100.00;99928.97;5053666;28;20038;-78
2021/11/02 01:54:06;;;;;;;18.25;11.63;;;;;;;5.49;100.00;99924.38;5052807;28;20082;-78
2021/11/02 01:56:35;;;;;;;25.88;11.90;;;;;;;5.52;100.00;99921.47;5052802;28;20033;-77
2021/11/02 01:59:01;;;;;;;19.55;11.40;;;;;;;5.50;100.00;99927.88;5054013;28;20036;-78
2021/11/02 02:01:26;;;;;;;21.45;11.30;;;;;;;5.47;100.00;99923.69;5053008;28;20032;-76
2021/11/02 02:04:11;;;;;;;24.92;11.90;;;;;;;5.45;100.00;99933.53;5052262;28;20496;-77
2021/11/02 02:07:08;;;;;;;27.20;11.93;;;;;;;5.42;100.00;99925.84;5052108;28;20033;-78
2021/11/02 02:09:52;;;;;;;21.83;11.73;;;;;;;5.41;100.00;99927.66;5053323;28;20047;-78
2021/11/02 02:12:28;;;;;;;19.20;11.18;;;;;;;5.41;100.00;99926.84;5053899;28;20020;-80
2021/11/02 02:15:04;;;;;;;22.90;12.07;;;;;;;5.38;100.00;99922.66;5053162;28;20036;-78
2021/11/02 02:17:47;;;;;;;22.88;13.43;;;;;;;5.38;100.00;99922.66;5052326;28;20120;-78
2021/11/02 02:20:55;;;;;;;26.25;12.80;;;;;;;5.38;100.00;99919.19;5052999;28;20489;-79
2021/11/02 02:23:51;;;;;;;25.33;12.70;;;;;;;5.37;100.00;99920.13;5053611;28;20033;-78
2021/11/02 02:26:34;;;;;;;18.13;11.88;;;;;;;5.33;100.00;99924.84;5053435;28;20051;-78
2021/11/02 02:29:03;;;;;;;27.75;13.07;;;;;;;5.29;100.00;99916.31;5051814;28;20052;-79
2021/11/02 02:31:32;;;;;;;19.90;13.15;;;;;;;5.26;100.00;99913.94;5053449;28;20120;-78
2021/11/02 02:33:59;;;;;;;21.95;12.52;;;;;;;5.27;100.00;99914.81;5052851;28;20511;-78
2021/11/02 02:36:25;;;;;;;22.23;12.73;;;;;;;5.28;100.00;99914.69;5051648;28;20059;-77
2021/11/02 02:38:54;;;;;;;21.05;12.27;;;;;;;5.26;100.00;99915.75;5035270;28;20439;-77
2021/11/02 02:41:24;;;;;;;22.83;12.70;;;;;;;5.25;100.00;99909.63;5051914;28;20120;-77
2021/11/02 02:43:50;;;;;;;27.52;13.52;;;;;;;5.21;100.00;99897.69;5051438;28;20032;-76
2021/11/02 02:46:16;;;;;;;24.17;12.95;;;;;;;5.19;100.00;99906.69;5051841;28;20029;-77
2021/11/02 02:48:43;;;;;;;21.92;12.13;;;;;;;5.14;100.00;99901.78;5052606;28;20040;-77
2021/11/02 02:51:13;;;;;;;23.85;13.38;;;;;;;5.09;100.00;99902.16;5053322;28;20033;-78
2021/11/02 02:53:43;;;;;;;26.48;14.40;;;;;;;5.07;100.00;99901.44;5053208;28;20033;-78
2021/11/02 02:56:10;;;;;;;24.23;13.65;;;;;;;5.05;100.00;99892.00;5051636;28;20025;-78
2021/11/02 02:58:38;;;;;;;27.52;14.68;;;;;;;5.04;100.00;99885.88;5051962;28;20041;-78
2021/11/02 03:01:11;;;;;;;25.17;13.60;;;;;;;5.03;100.00;99888.63;5051162;28;20416;-78
2021/11/02 03:03:46;;;;;;;26.58;14.52;;;;;;;5.00;100.00;99880.97;5035018;28;20044;-78
2021/11/02 03:06:13;;;;;;;25.45;13.70;;;;;;;5.00;100.00;99889.75;5051822;28;20163;-78
2021/11/02 03:08:39;;;;;;;24.05;14.80;;;;;;;4.97;100.00;99879.47;5035149;28;20037;-78
2021/11/02 03:11:07;;;;;;;29.65;14.07;;;;;;;4.93;100.00;99881.50;5051179;28;20406;-78
2021/11/02 03:13:35;;;;;;;29.58;15.38;;;;;;;4.89;100.00;99877.44;5052672;28;20132;-77
2021/11/02 03:16:06;;;;;;;27.20;14.25;;;;;;;4.89;100.00;99879.25;5051987;28;20033;-78
2021/11/02 05:49:29;;;;;;;36.38;16.85;;;;;;;3.81;100.00;99943.06;5053760;28;20048;-77
2021/11/02 05:55:12;;;;;;;44.15;18.58;;;;;;;3.85;100.00;99944.47;5052407;28;20538;-76
2021/11/02 05:57:27;;;;;;;42.35;19.85;;;;;;;3.94;100.00;99950.84;5050548;28;20041;-76
2021/11/02 06:00:09;;;;;;;42.13;18.63;;;;;;;3.98;100.00;99953.13;5054305;28;20123;-76
2021/11/02 06:07:49;;;;;;;46.28;18.48;;;;;;;4.05;100.00;99950.88;5053958;28;20037;-76
2021/11/02 06:10:54;;;;;;;41.05;18.45;;;;;;;4.05;100.00;99953.50;5052217;28;20120;-77
2021/11/02 06:33:30;;;;;;;82.30;29.15;;;;;;;4.56;100.00;99950.34;5049966;28;20041;-80
2021/11/02 06:36:21;;;;;;;78.63;27.58;;;;;;;4.63;100.00;99957.75;5053204;28;20480;-77
2021/11/02 06:57:59;;;;;;;98.53;35.60;;;;;;;5.00;100.00;99957.44;5052587;28;20048;-79
2021/11/02 07:25:10;;;;;;;57.55;24.30;;;;;;;5.51;100.00;99966.47;5051595;28;20037;-78
2021/11/02 08:46:40;;;;;;;34.30;19.75;;;;;;;6.55;100.00;99991.09;5055810;28;20044;-78
2021/11/02 08:49:06;;;;;;;39.88;21.50;;;;;;;6.50;100.00;99991.50;5054756;28;20112;-78
2021/11/02 08:51:33;;;;;;;39.08;21.65;;;;;;;6.50;100.00;99988.03;5054946;28;20044;-80
2021/11/02 08:53:58;;;;;;;46.33;23.33;;;;;;;6.49;100.00;99987.22;5054001;28;20136;-80
2021/11/02 08:56:24;;;;;;;37.55;22.05;;;;;;;6.52;100.00;99983.44;5053418;28;20529;-79
2021/11/02 08:58:52;;;;;;;39.88;21.38;;;;;;;6.60;100.00;99985.41;5054113;28;20473;-78
2021/11/02 09:01:18;;;;;;;40.00;21.23;;;;;;;6.61;100.00;99987.94;5054108;28;20037;-78
2021/11/02 09:03:51;;;;;;;38.40;21.65;;;;;;;6.66;100.00;99987.56;5054718;28;20037;-77
2021/11/02 09:06:19;;;;;;;39.75;21.25;;;;;;;6.67;100.00;99994.50;5055165;28;20115;-80
2021/11/02 09:08:54;;;;;;;37.70;21.45;;;;;;;6.68;100.00;99990.88;5053441;28;20029;-80
2021/11/02 09:11:20;;;;;;;45.50;23.77;;;;;;;6.71;100.00;99990.63;5053606;28;20063;-78
2021/11/02 09:13:49;;;;;;;39.38;21.77;;;;;;;6.74;100.00;99989.50;5054359;28;20547;-78
2021/11/02 09:16:15;;;;;;;37.10;22.05;;;;;;;6.78;100.00;99991.75;5054910;28;20485;-78
2021/11/02 09:18:45;;;;;;;37.50;23.13;;;;;;;6.80;100.00;99994.25;5054392;28;20469;-80
2021/11/02 09:21:11;;;;;;;37.33;22.90;;;;;;;6.81;100.00;99995.94;5053586;28;20037;-80
2021/11/02 09:23:47;;;;;;;32.88;21.88;;;;;;;6.82;100.00;99995.81;5054192;28;20025;-80
2021/11/02 09:26:17;;;;;;;40.05;22.23;;;;;;;6.86;100.00;100004.28;5054818;28;20039;-80
2021/11/02 09:28:44;;;;;;;37.08;21.67;;;;;;;6.86;100.00;99999.00;5053933;28;20032;-80
2021/11/02 09:31:11;;;;;;;34.20;22.35;;;;;;;6.89;100.00;99998.72;5054833;28;20029;-80
2021/11/02 09:33:36;;;;;;;36.60;23.00;;;;;;;6.90;100.00;99997.75;5054061;28;20033;-78
2021/11/02 09:36:07;;;;;;;35.10;20.25;;;;;;;6.92;100.00;99997.63;5053003;28;20109;-77
2021/11/02 09:38:48;;;;;;;34.83;21.55;;;;;;;6.89;100.00;100006.66;5052983;28;20397;-77
2021/11/02 09:41:27;;;;;;;38.00;22.58;;;;;;;6.91;100.00;99993.31;5054387;28;20025;-78
2021/11/02 09:44:09;;;;;;;34.83;21.83;;;;;;;6.87;100.00;100001.50;5053065;28;20076;-77
2021/11/02 09:46:36;;;;;;;;;;;;;;;6.86;100.00;99993.72;5053172;28;20503;-77
2021/11/02 09:49:31;;;;;;;36.83;23.17;;;;;;;6.84;100.00;99999.13;5053121;28;19909;-78
2021/11/02 09:52:18;;;;;;;47.35;24.83;;;;;;;6.84;100.00;99999.13;5052894;28;20134;-79
2021/11/02 09:55:28;;;;;;;42.38;24.65;;;;;;;6.84;100.00;99996.50;5052528;28;20381;-80
2021/11/02 09:58:12;;;;;;;42.65;24.13;;;;;;;6.84;100.00;99990.38;5043674;28;20493;-77
2021/11/02 10:00:55;;;;;;;40.15;24.42;;;;;;;6.84;100.00;100000.97;5053432;28;20035;-76
2021/11/02 10:03:28;;;;;;;39.92;25.83;;;;;;;6.82;100.00;99998.44;5052873;28;20182;-76
2021/11/02 10:06:33;;;;;;;46.17;24.98;;;;;;;6.84;100.00;99998.31;5052450;28;20257;-76
2021/11/02 10:09:05;;;;;;;37.97;24.58;;;;;;;6.85;100.00;99995.53;5052461;28;20492;-76
2021/11/02 10:11:44;;;;;;;44.58;26.00;;;;;;;6.88;100.00;99992.63;5053775;28;20032;-78
2021/11/02 10:14:29;;;;;;;51.40;25.73;;;;;;;6.93;100.00;99989.56;5053960;28;20037;-76
2021/11/02 10:17:07;;;;;;;45.55;27.70;;;;;;;6.98;100.00;99989.16;5051850;28;20029;-77
2021/11/02 10:19:58;;;;;;;49.83;26.90;;;;;;;7.00;100.00;99990.69;5053351;28;20032;-77
2021/11/02 10:22:42;;;;;;;46.85;25.85;;;;;;;7.01;100.00;99997.63;5053556;28;20044;-77
2021/11/02 10:25:13;;;;;;;47.08;26.30;;;;;;;7.03;100.00;99992.22;5052308;28;20032;-77
2021/11/02 10:28:00;;;;;;;48.25;26.67;;;;;;;7.06;100.00;99987.50;5051730;28;20029;-77
2021/11/02 10:30:48;;;;;;;38.60;24.25;;;;;;;7.12;100.00;99993.19;5053680;28;20540;-77
2021/11/02 10:33:18;;;;;;;39.70;25.35;;;;;;;7.18;100.00;99990.84;5053663;28;20033;-76
2021/11/02 10:36:14;;;;;;;42.50;24.23;;;;;;;7.27;100.00;99989.19;5053171;28;20135;-77
2021/11/02 10:38:57;;;;;;;37.72;24.00;;;;;;;7.38;100.00;99991.69;5053065;28;20025;-76
2021/11/02 10:41:34;;;;;;;34.72;22.83;;;;;;;7.40;100.00;99994.19;5052699;28;20039;-77
2021/11/02 10:44:15;;;;;;;39.17;23.58;;;;;;;7.40;100.00;99992.41;5053293;28;20047;-78
2021/11/02 10:46:56;;;;;;;44.15;26.05;;;;;;;7.41;100.00;99990.59;5052760;28;20029;-79
2021/11/02 10:49:49;;;;;;;36.85;24.27;;;;;;;7.41;100.00;99988.75;5031462;28;20033;-78
2021/11/02 10:52:24;;;;;;;41.58;24.27;;;;;;;7.40;100.00;99988.91;5021577;28;20041;-80
2021/11/02 10:54:50;;;;;;;39.33;24.92;;;;;;;7.43;100.00;99985.97;5029930;28;20035;-78
2021/11/02 10:57:25;;;;;;;33.10;23.92;;;;;;;7.47;100.00;99987.38;5030458;28;20038;-78
2021/11/02 10:59:51;;;;;;;36.50;22.88;;;;;;;7.51;100.00;99993.22;5029791;28;20036;-77
2021/11/02 11:02:28;;;;;;;29.35;21.95;;;;;;;7.53;100.00;99993.94;5029069;28;20033;-76
2021/11/02 11:04:59;;;;;;;33.85;21.10;;;;;;;7.55;100.00;99997.25;5029761;28;20109;-76
2021/11/02 11:07:34;;;;;;;32.15;22.13;;;;;;;7.52;100.00;99992.25;5029813;28;20119;-77
2021/11/02 11:10:02;;;;;;;33.25;23.35;;;;;;;7.54;100.00;99988.50;5045124;28;20423;-77
2021/11/02 11:12:33;;;;;;;32.33;23.10;;;;;;;7.57;100.00;99988.22;5030087;28;20353;-78
2021/11/02 11:15:02;;;;;;;37.67;23.17;;;;;;;7.66;100.00;99988.31;5029467;28;20477;-77
2021/11/02 11:17:28;;;;;;;34.22;22.17;;;;;;;7.70;100.00;99995.00;5030079;28;20033;-77
2021/11/02 11:20:08;;;;;;;33.38;22.88;;;;;;;7.73;100.00;99986.78;5029429;28;20037;-77
2021/11/02 11:22:37;;;;;;;30.98;21.90;;;;;;;7.71;100.00;99989.56;5030403;28;20049;-79
2021/11/02 11:25:07;;;;;;;28.75;20.17;;;;;;;7.64;100.00;99993.75;5044617;28;20560;-78
2021/11/02 11:27:35;;;;;;;28.93;20.37;;;;;;;7.57;100.00;99990.84;5030014;28;20087;-79
2021/11/02 11:30:11;;;;;;;26.65;18.90;;;;;;;7.49;100.00;99987.22;5028216;28;20765;-80
2021/11/02 11:32:39;;;;;;;26.60;19.50;;;;;;;7.40;100.00;99986.25;5028642;28;20025;-78
2021/11/02 11:35:06;;;;;;;30.92;19.08;;;;;;;7.33;100.00;99985.13;5044491;28;20053;-80
2021/11/02 11:37:38;;;;;;;29.55;20.10;;;;;;;7.28;100.00;99990.00;5045229;28;20541;-78
2021/11/02 11:40:06;;;;;;;33.97;21.23;;;;;;;7.26;100.00;99984.88;5029458;28;20547;-78
2021/11/02 11:42:33;;;;;;;32.83;21.08;;;;;;;7.29;100.00;99987.22;5028269;28;20055;-78
2021/11/02 11:45:12;;;;;;;30.23;21.23;;;;;;;7.36;100.00;99983.06;5029210;28;20079;-78
2021/11/02 11:47:38;;;;;;;30.48;21.08;;;;;;;7.44;100.00;99987.66;5028262;28;20033;-77
2021/11/02 11:50:28;;;;;;;28.38;20.75;;;;;;;7.53;100.00;99983.34;5029476;28;20091;-80
2021/11/02 11:52:55;;;;;;;26.95;17.88;;;;;;;7.57;100.00;99987.38;5032072;28;20503;-77
2021/11/02 11:55:26;;;;;;;22.55;17.45;;;;;;;7.58;100.00;99979.28;5033504;28;20063;-77
2021/11/02 11:58:24;;;;;;;22.20;15.20;;;;;;;7.58;100.00;99981.94;5048601;28;20531;-78
2021/11/02 12:00:51;;;;;;;20.75;14.85;;;;;;;7.60;100.00;99989.75;5031460;28;20283;-78
2021/11/02 12:03:44;;;;;;;18.45;14.55;;;;;;;7.54;100.00;99979.72;5033450;28;20436;-78
2021/11/02 12:06:19;;;;;;;13.40;10.73;;;;;;;7.47;100.00;99979.44;5049154;28;20095;-84
2021/11/02 12:09:00;;;;;;;13.25;10.95;;;;;;;7.37;100.00;99976.78;5048257;28;20026;-78
2021/11/02 12:11:32;;;;;;;13.18;9.25;;;;;;;7.26;99.90;99979.56;5033222;28;20068;-78
2021/11/02 12:14:17;;;;;;;11.07;7.72;;;;;;;7.14;99.57;99978.03;5032798;28;20153;-78
2021/11/02 12:16:45;;;;;;;11.50;7.22;;;;;;;7.08;100.00;99982.06;5050607;28;20108;-78
2021/11/02 12:19:23;;;;;;;7.53;5.20;;;;;;;7.05;100.00;99980.53;5053273;28;20037;-79
2021/11/02 12:22:02;;;;;;;5.18;4.43;;;;;;;7.04;100.00;99975.38;5052844;28;20064;-79
2021/11/02 12:24:35;;;;;;;4.13;3.72;;;;;;;7.02;100.00;99975.50;5052965;28;20037;-80
2021/11/02 12:27:16;;;;;;;7.03;4.00;;;;;;;7.09;100.00;99985.53;5052554;28;20495;-80
2021/11/02 12:29:44;;;;;;;4.15;3.75;;;;;;;7.16;100.00;99978.72;5053122;28;20481;-77
2021/11/02 12:32:12;;;;;;;7.00;3.85;;;;;;;7.28;100.00;99980.25;5051193;28;20028;-79
2021/11/02 12:35:05;;;;;;;6.40;3.17;;;;;;;7.36;99.99;99983.06;5051677;28;20473;-79
2021/11/02 12:37:31;;;;;;;4.03;2.90;;;;;;;7.39;100.00;99976.66;5052983;28;20045;-80
2021/11/02 12:40:14;;;;;;;3.17;2.33;;;;;;;7.43;100.00;99974.56;5050663;28;20033;-78
2021/11/02 12:42:40;;;;;;;6.78;2.28;;;;;;;7.50;100.00;99979.16;5052815;28;20036;-79
2021/11/02 12:45:06;;;;;;;3.08;2.45;;;;;;;7.58;99.88;99970.50;5052255;28;20540;-78
2021/11/02 12:47:32;;;;;;;1.95;1.75;;;;;;;7.65;98.16;99973.44;5051023;28;20723;-78
2021/11/02 12:50:01;;;;;;;2.72;2.03;;;;;;;7.77;97.54;99980.25;5034375;28;20040;-78
2021/11/02 12:52:31;;;;;;;5.57;1.63;;;;;;;7.82;96.50;99977.16;5050956;28;20033;-79
2021/11/02 12:55:11;;;;;;;2.38;1.70;;;;;;;7.86;95.68;99975.91;5052075;28;20047;-79
2021/11/02 12:57:42;;;;;;;1.60;1.50;;;;;;;7.85;95.37;99971.56;5052663;28;20576;-79
2021/11/02 13:00:11;;;;;;;2.38;1.20;;;;;;;7.85;95.93;99974.22;5052526;28;20025;-78
2021/11/02 13:02:39;;;;;;;4.32;1.65;;;;;;;7.85;97.19;99979.53;5052429;28;20025;-79
2021/11/02 13:05:07;;;;;;;2.92;1.30;;;;;;;7.87;97.92;99974.94;5051322;28;20484;-78
2021/11/02 13:07:41;;;;;;;2.63;0.90;;;;;;;7.91;97.36;99978.94;5052683;28;20029;-78
2021/11/02 13:10:16;;;;;;;3.50;1.02;;;;;;;7.98;97.12;99974.75;5051857;28;20108;-79
2021/11/02 13:12:48;;;;;;;1.67;0.70;;;;;;;8.07;95.34;99984.47;5050873;28;20399;-78
2021/11/02 13:15:14;;;;;;;3.97;1.00;;;;;;;8.12;93.54;99976.97;5051356;28;20546;-77
2021/11/02 13:17:47;;;;;;;1.20;0.55;;;;;;;8.20;94.07;99978.88;5052324;28;20025;-77
2021/11/02 13:20:28;;;;;;;4.55;0.88;;;;;;;8.21;94.83;99980.56;5051948;28;20040;-77
2021/11/02 13:22:55;;;;;;;2.53;0.63;;;;;;;8.23;95.71;99975.94;5051539;28;20033;-78
2021/11/02 13:25:24;;;;;;;1.83;0.80;;;;;;;8.21;94.59;99993.81;5050780;28;20029;-78
2021/11/02 13:27:56;;;;;;;3.03;0.68;;;;;;;8.19;92.52;99993.09;5050633;28;20048;-77
2021/11/02 13:30:41;;;;;;;1.08;0.60;;;;;;;8.20;94.79;99989.47;5052051;28;20045;-76
2021/11/02 13:33:20;;;;;;;2.78;0.70;;;;;;;8.25;95.57;99987.22;5051436;28;20056;-77
2021/11/02 13:35:58;;;;;;;4.05;0.77;;;;;;;8.32;95.57;99999.91;5051730;28;20124;-77
2021/11/02 13:38:29;;;;;;;2.90;0.73;;;;;;;8.39;93.50;99993.03;5050710;28;20045;-77
2021/11/02 13:40:57;;;;;;;1.77;0.57;;;;;;;8.44;90.92;99999.59;5050502;28;20516;-77
2021/11/02 13:43:44;;;;;;;2.35;0.50;;;;;;;8.49;91.24;100001.81;5052020;28;20040;-76
2021/11/02 13:46:16;;;;;;;2.78;0.65;;;;;;;8.50;90.91;100000.00;5049335;28;20053;-77
2021/11/02 13:48:42;;;;;;;1.85;0.50;;;;;;;8.51;91.20;100006.97;5050484;28;20082;-77
2021/11/02 13:51:11;;;;;;;1.02;0.68;;;;;;;8.50;90.93;100005.31;5049776;28;20139;-77
2021/11/02 13:53:37;;;;;;;1.90;0.80;;;;;;;8.53;91.59;100008.50;5051486;28;20028;-77
2021/11/02 13:56:07;;;;;;;3.53;1.02;;;;;;;8.58;91.08;100006.25;5049634;28;20082;-77
2021/11/02 13:58:34;;;;;;;2.55;0.80;;;;;;;8.64;90.27;100003.03;5049972;28;20072;-76
2021/11/02 14:00:59;;;;;;;1.13;0.90;;;;;;;8.70;90.43;100014.00;5050841;28;20105;-78
2021/11/02 14:03:30;;;;;;;0.95;0.80;;;;;;;8.73;88.73;100005.75;5049761;28;20037;-77
2021/11/02 14:05:59;;;;;;;4.75;1.00;;;;;;;8.74;87.01;100015.38;5051527;28;20533;-74
2021/11/02 14:08:25;;;;;;;1.85;0.90;;;;;;;8.73;88.06;100009.25;5051096;28;20434;-74
2021/11/02 14:10:58;;;;;;;2.25;0.90;;;;;;;8.72;90.20;100010.22;5050971;28;20033;-74
2021/11/02 14:13:47;;;;;;;2.35;0.90;;;;;;;8.71;88.91;100008.56;5051223;28;20457;-73
2021/11/02 14:16:14;;;;;;;1.42;0.90;;;;;;;8.72;90.04;100010.22;5049309;28;20083;-73
2021/11/02 14:18:40;;;;;;;1.52;1.20;;;;;;;8.69;89.96;100012.31;5050975;28;20040;-74
2021/11/02 14:21:07;;;;;;;2.47;0.80;;;;;;;8.66;89.96;100010.81;5050083;28;20071;-77
2021/11/02 14:23:38;;;;;;;3.17;0.80;;;;;;;8.64;89.23;100012.78;5050703;28;20037;-74
2021/11/02 14:26:26;;;;;;;3.25;0.77;;;;;;;8.57;89.71;100019.63;5050613;28;20036;-76
2021/11/02 14:28:59;;;;;;;3.53;0.70;;;;;;;8.45;88.95;100017.19;5048358;28;20033;-78
2021/11/02 14:31:40;;;;;;;5.30;1.02;;;;;;;8.40;88.23;100027.34;5046042;28;20021;-75
2021/11/02 14:34:24;;;;;;;2.22;0.70;;;;;;;8.30;89.10;100034.53;5052666;28;20497;-75
2021/11/02 14:36:50;;;;;;;2.00;0.80;;;;;;;8.18;90.41;100033.84;5051971;28;20052;-74
2021/11/02 14:39:16;;;;;;;2.67;0.80;;;;;;;8.07;88.06;100032.19;5035159;28;20029;-75
2021/11/02 14:41:49;;;;;;;2.95;0.80;;;;;;;8.01;91.21;100038.03;5053394;28;20029;-75
2021/11/02 14:44:17;;;;;;;3.67;0.65;;;;;;;7.98;92.13;100040.97;5052646;28;20033;-74
2021/11/02 14:47:29;;;;;;;1.23;0.80;;;;;;;7.94;92.13;100042.22;5053449;28;20025;-75
2021/11/02 14:49:54;;;;;;;0.73;0.63;;;;;;;7.96;93.70;100045.59;5051753;28;20044;-76
2021/11/02 14:52:36;;;;;;;1.85;0.80;;;;;;;7.97;94.07;100043.78;5051266;28;20583;-76
2021/11/02 14:55:01;;;;;;;1.27;0.85;;;;;;;7.96;94.67;100040.31;5053307;28;20025;-75
2021/11/02 14:57:27;;;;;;;4.07;1.02;;;;;;;7.95;94.52;100043.91;5051356;28;20373;-76
2021/11/02 15:00:04;;;;;;;1.92;0.90;;;;;;;7.95;94.06;100052.69;5053081;28;20095;-75
2021/11/02 15:02:33;;;;;;;1.50;0.80;;;;;;;8.00;93.50;100054.94;5051753;28;20040;-75
2021/11/02 15:05:04;;;;;;;3.45;1.10;;;;;;;7.99;91.87;100052.44;5052726;28;20029;-77
2021/11/02 15:07:32;;;;;;;11.30;1.43;;;;;;;7.95;92.56;100050.03;5051453;28;20056;-76
2021/11/02 15:09:58;;;;;;;1.33;1.00;;;;;;;7.90;91.24;100056.75;5052877;28;20107;-76
2021/11/02 15:12:24;;;;;;;2.28;1.00;;;;;;;7.87;90.48;100055.22;5052213;28;20632;-76
2021/11/02 15:14:49;;;;;;;1.70;1.02;;;;;;;7.88;90.57;100056.91;5051442;28;20435;-75
2021/11/02 15:17:19;;;;;;;9.25;1.30;;;;;;;7.84;89.22;100059.97;5050835;28;20534;-76
2021/11/02 15:19:44;;;;;;;3.55;1.00;;;;;;;7.80;90.00;100055.94;5052617;28;20037;-75
2021/11/02 15:22:16;;;;;;;1.20;1.00;;;;;;;7.73;91.18;100059.13;5052519;28;20069;-76
2021/11/02 15:24:44;;;;;;;1.77;0.90;;;;;;;7.65;91.38;100056.34;5052701;28;20048;-76
2021/11/02 15:27:11;;;;;;;1.90;1.00;;;;;;;7.64;93.26;100049.38;5051713;28;20134;-75
2021/11/02 15:29:40;;;;;;;0.90;0.90;;;;;;;7.66;94.67;100041.28;5052543;28;20033;-74
2021/11/02 15:32:15;;;;;;;1.85;1.10;;;;;;;7.65;94.74;100051.03;5052233;28;20064;-75
2021/11/02 15:34:46;;;;;;;4.30;2.22;;;;;;;7.61;95.04;100056.75;5050880;28;20057;-75
2021/11/02 15:37:18;;;;;;;5.43;2.08;;;;;;;7.47;95.10;100050.91;5050766;28;20095;-74
2021/11/02 15:39:54;;;;;;;5.22;1.63;;;;;;;7.36;95.73;100049.22;5051552;28;20043;-76
2021/11/02 15:42:23;;;;;;;2.63;1.60;;;;;;;7.24;96.51;100048.50;5029219;28;20037;-77
2021/11/02 15:44:55;;;;;;;1.63;1.30;;;;;;;7.15;97.17;100054.63;5029451;28;20033;-76
2021/11/02 15:47:22;;;;;;;2.75;1.25;;;;;;;7.06;97.87;100058.91;5029729;28;20037;-76
2021/11/02 15:50:06;;;;;;;2.70;1.30;;;;;;;6.98;98.17;100061.38;5029830;28;20116;-75
2021/11/02 15:52:33;;;;;;;1.60;1.40;;;;;;;6.88;97.89;100066.66;5028985;28;20061;-76
2021/11/02 15:55:12;;;;;;;4.30;1.73;;;;;;;6.81;98.58;100069.97;5029383;28;20099;-76
2021/11/02 15:57:46;;;;;;;6.30;1.85;;;;;;;6.71;98.97;100075.22;5029508;28;20032;-77
2021/11/02 16:00:14;;;;;;;2.67;1.60;;;;;;;6.64;99.25;100074.06;5028402;28;20067;-78
2021/11/02 16:02:42;;;;;;;2.10;1.80;;;;;;;6.58;99.61;100080.72;5029286;28;20044;-77
2021/11/02 16:05:12;;;;;;;3.28;2.17;;;;;;;6.53;99.96;100082.94;5029103;28;20111;-75
2021/11/02 16:07:38;;;;;;;8.18;2.05;;;;;;;6.52;100.00;100076.81;5029246;28;20404;-75
2021/11/02 16:10:05;;;;;;;5.82;2.33;;;;;;;6.56;100.00;100090.59;5029738;28;20465;-76
2021/11/02 16:12:42;;;;;;;4.45;2.78;;;;;;;6.58;100.00;100085.16;5029182;28;20397;-76
2021/11/02 16:15:08;;;;;;;5.95;2.85;;;;;;;6.60;100.00;100084.06;5029391;28;20527;-77
2021/11/02 16:17:46;;;;;;;4.32;2.20;;;;;;;6.59;100.00;100086.84;5028501;28;20041;-76
2021/11/02 16:20:25;;;;;;;4.47;1.80;;;;;;;6.56;100.00;100081.84;5029018;28;20068;-76
2021/11/02 16:23:09;;;;;;;6.60;2.20;;;;;;;6.52;100.00;100087.38;5028669;28;20029;-75
2021/11/02 16:25:38;;;;;;;7.80;2.38;;;;;;;6.50;100.00;100083.19;5028789;28;20029;-76
2021/11/02 16:28:24;;;;;;;6.60;2.13;;;;;;;6.48;100.00;100087.78;5028922;28;20572;-75
2021/11/02 16:30:58;;;;;;;4.70;1.65;;;;;;;6.49;100.00;100094.72;5029192;28;20041;-75
2021/11/02 16:33:38;;;;;;;3.67;1.50;;;;;;;6.46;100.00;100084.41;5028882;28;20474;-76
2021/11/02 16:36:16;;;;;;;7.30;1.30;;;;;;;6.46;100.00;100100.28;5027673;28;20544;-75
2021/11/02 16:38:41;;;;;;;1.33;0.70;;;;;;;6.43;100.00;100106.63;5030204;28;20041;-77
2021/11/02 16:41:19;;;;;;;3.30;1.92;;;;;;;6.39;100.00;100128.19;5014687;28;20378;-76
2021/11/02 16:43:50;;;;;;;1.65;1.10;;;;;;;6.39;98.18;100128.19;5032958;28;20385;-75
2021/11/02 16:46:30;;;;;;;3.15;0.90;;;;;;;6.40;97.28;100128.03;5031239;28;20037;-76
2021/11/02 16:49:05;;;;;;;4.45;1.30;;;;;;;6.28;95.28;100129.91;5032744;28;20082;-75
2021/11/02 16:51:46;;;;;;;3.20;1.10;;;;;;;6.01;94.54;100122.50;5032033;28;20037;-75